createdAt,value
2019-05-17T00:00:10.231Z,99480.03
2019-05-17T00:00:47.496Z,99477.70
2019-05-17T00:01:26.873Z,99472.28
2019-05-17T00:02:02.137Z,99474.03
2019-05-17T00:02:38.089Z,99477.84
2019-05-17T00:03:16.892Z,99471.60
2019-05-17T00:03:52.346Z,99480.03
2019-05-17T00:04:28.452Z,99475.48
2019-05-17T00:05:06.939Z,99473.22
2019-05-17T00:05:43.546Z,99471.83
2019-05-17T00:06:19.571Z,99473.28
2019-05-17T00:06:57.054Z,99472.12
2019-05-17T00:07:32.928Z,99475.80
2019-05-17T00:08:08.951Z,99473.67
2019-05-17T00:08:47.306Z,99473.21
2019-05-17T00:09:23.487Z,99471.19
2019-05-17T00:09:59.171Z,99467.70
2019-05-17T00:10:37.622Z,99470.81
2019-05-17T00:11:13.086Z,99465.33
2019-05-17T00:11:48.920Z,99466.69
2019-05-17T00:12:27.139Z,99463.45
2019-05-17T00:13:03.253Z,99463.69
2019-05-17T00:13:39.239Z,99459.00
2019-05-17T00:14:16.778Z,99461.94
2019-05-17T00:14:53.331Z,99462.72
2019-05-17T00:15:29.531Z,99464.17
2019-05-17T00:16:07.259Z,99461.36
2019-05-17T00:16:43.238Z,99465.82
2019-05-17T00:17:18.893Z,99460.45
2019-05-17T00:17:56.967Z,99463.45
2019-05-17T00:18:32.516Z,99463.97
2019-05-17T00:19:08.159Z,99457.51
2019-05-17T00:19:46.361Z,99459.45
2019-05-17T00:20:22.098Z,99457.42
2019-05-17T00:20:58.896Z,99457.80
2019-05-17T00:21:36.917Z,99459.94
2019-05-17T00:22:12.987Z,99453.28
2019-05-17T00:22:48.608Z,99456.03
2019-05-17T00:23:26.732Z,99459.00
2019-05-17T00:24:02.485Z,99456.66
2019-05-17T00:24:38.223Z,99454.67
2019-05-17T00:25:16.605Z,99456.73
2019-05-17T00:25:52.661Z,99453.24
2019-05-17T00:26:28.292Z,99454.22
2019-05-17T00:27:06.561Z,99451.35
2019-05-17T00:27:41.956Z,99442.94
2019-05-17T00:28:17.892Z,99440.54
2019-05-17T00:28:56.153Z,99449.05
2019-05-17T00:29:31.861Z,99448.38
2019-05-17T00:30:09.443Z,99441.27
2019-05-17T00:30:46.530Z,99440.08
2019-05-17T00:31:22.507Z,99441.72
2019-05-17T00:31:58.182Z,99442.50
2019-05-17T00:32:36.736Z,99435.75
2019-05-17T00:33:12.651Z,99441.72
2019-05-17T00:33:48.265Z,99442.11
2019-05-17T00:34:26.908Z,99439.33
2019-05-17T00:35:02.868Z,99445.17
2019-05-17T00:35:38.550Z,99435.81
2019-05-17T00:36:14.540Z,99437.72
2019-05-17T00:36:50.343Z,99436.83
2019-05-17T00:37:26.496Z,99442.20
2019-05-17T00:38:02.688Z,99436.42
2019-05-17T00:38:48.208Z,99435.97
2019-05-17T00:39:16.710Z,99430.89
2019-05-17T00:39:52.908Z,99430.52
2019-05-17T00:40:29.272Z,99432.11
2019-05-17T00:41:06.921Z,99428.92
2019-05-17T00:41:42.609Z,99428.54
2019-05-17T00:42:18.775Z,99427.48
2019-05-17T00:42:54.467Z,99423.66
2019-05-17T00:43:30.954Z,99424.13
2019-05-17T00:44:07.140Z,99421.25
2019-05-17T00:44:43.174Z,99422.34
2019-05-17T00:45:20.391Z,99420.80
2019-05-17T00:45:57.489Z,99422.33
2019-05-17T00:46:33.307Z,99423.20
2019-05-17T00:47:09.652Z,99420.62
2019-05-17T00:47:46.812Z,99418.82
2019-05-17T00:48:22.847Z,99423.22
2019-05-17T00:48:59.385Z,99419.80
2019-05-17T00:49:37.208Z,99416.99
2019-05-17T00:50:13.501Z,99415.25
2019-05-17T00:50:53.653Z,99417.65
2019-05-17T00:51:28.112Z,99413.27
2019-05-17T00:52:04.088Z,99408.64
2019-05-17T00:52:40.077Z,99416.25
2019-05-17T00:53:16.400Z,99408.88
2019-05-17T00:53:52.661Z,99412.90
2019-05-17T00:54:29.216Z,99403.61
2019-05-17T00:55:06.721Z,99407.66
2019-05-17T00:55:42.894Z,99407.79
2019-05-17T00:56:18.897Z,99406.28
2019-05-17T00:56:56.674Z,99407.56
2019-05-17T00:57:32.536Z,99409.07
2019-05-17T00:58:08.543Z,99403.55
2019-05-17T00:58:47.586Z,99405.73
2019-05-17T00:59:23.294Z,99400.94
2019-05-17T00:59:59.360Z,99403.83
2019-05-17T01:00:37.719Z,99400.34
2019-05-17T01:01:12.645Z,99406.42
2019-05-17T01:01:48.650Z,99406.42
2019-05-17T01:02:26.859Z,99404.92
2019-05-17T01:03:02.177Z,99408.03
2019-05-17T01:03:38.191Z,99403.53
2019-05-17T01:04:17.108Z,99399.45
2019-05-17T01:04:52.654Z,99397.39
2019-05-17T01:05:28.733Z,99399.52
2019-05-17T01:06:06.328Z,99396.41
2019-05-17T01:06:42.454Z,99403.33
2019-05-17T01:07:18.460Z,99405.67
2019-05-17T01:07:54.315Z,99402.09
2019-05-17T01:08:30.346Z,99401.02
2019-05-17T01:09:08.184Z,99401.58
2019-05-17T01:09:47.124Z,99403.92
2019-05-17T01:10:22.101Z,99402.77
2019-05-17T01:10:58.658Z,99406.19
2019-05-17T01:11:36.622Z,99404.53
2019-05-17T01:12:12.902Z,99402.41
2019-05-17T01:12:49.262Z,99395.42
2019-05-17T01:13:26.683Z,99395.18
2019-05-17T01:14:02.639Z,99397.23
2019-05-17T01:14:39.150Z,99390.77
2019-05-17T01:15:16.736Z,99396.08
2019-05-17T01:15:52.587Z,99394.70
2019-05-17T01:16:28.710Z,99396.53
2019-05-17T01:17:07.000Z,99393.88
2019-05-17T01:17:42.417Z,99393.51
2019-05-17T01:18:18.802Z,99394.94
2019-05-17T01:18:57.188Z,99401.19
2019-05-17T01:19:32.413Z,99393.81
2019-05-17T01:20:09.867Z,99395.18
2019-05-17T01:20:47.475Z,99394.13
2019-05-17T01:21:23.666Z,99400.73
2019-05-17T01:22:00.155Z,99389.93
2019-05-17T01:22:36.682Z,99388.86
2019-05-17T01:23:12.651Z,99387.64
2019-05-17T01:23:48.972Z,99391.37
2019-05-17T01:24:27.307Z,99389.55
2019-05-17T01:25:03.094Z,99392.45
2019-05-17T01:25:39.568Z,99381.93
2019-05-17T01:26:18.268Z,99386.06
2019-05-17T01:26:53.292Z,99381.27
2019-05-17T01:27:29.771Z,99382.77
2019-05-17T01:28:07.593Z,99385.91
2019-05-17T01:28:43.723Z,99382.17
2019-05-17T01:29:19.733Z,99380.89
2019-05-17T01:29:57.292Z,99383.02
2019-05-17T01:30:33.138Z,99376.09
2019-05-17T01:31:09.192Z,99376.45
2019-05-17T01:31:46.540Z,99377.39
2019-05-17T01:32:22.459Z,99379.90
2019-05-17T01:32:58.575Z,99379.66
2019-05-17T01:33:36.744Z,99373.19
2019-05-17T01:34:12.560Z,99374.80
2019-05-17T01:34:48.684Z,99375.45
2019-05-17T01:35:26.591Z,99373.71
2019-05-17T01:36:02.581Z,99375.45
2019-05-17T01:36:38.562Z,99369.94
2019-05-17T01:37:16.995Z,99375.70
2019-05-17T01:37:52.530Z,99371.81
2019-05-17T01:38:28.741Z,99370.59
2019-05-17T01:39:17.040Z,99375.70
2019-05-17T01:39:43.227Z,99368.34
2019-05-17T01:40:19.261Z,99368.02
2019-05-17T01:40:56.425Z,99368.10
2019-05-17T01:41:32.815Z,99359.83
2019-05-17T01:42:08.815Z,99375.57
2019-05-17T01:42:46.624Z,99371.13
2019-05-17T01:43:21.951Z,99370.45
2019-05-17T01:43:58.301Z,99370.45
2019-05-17T01:44:34.148Z,99372.97
2019-05-17T01:45:13.359Z,99372.97
2019-05-17T01:45:49.447Z,99368.31
2019-05-17T01:46:27.614Z,99373.13
2019-05-17T01:47:03.311Z,99371.38
2019-05-17T01:47:39.340Z,99372.69
2019-05-17T01:48:16.373Z,99372.69
2019-05-17T01:48:52.579Z,99369.71
2019-05-17T01:49:28.697Z,99371.98
2019-05-17T01:50:06.822Z,99369.47
2019-05-17T01:50:42.358Z,99371.08
2019-05-17T01:51:18.643Z,99371.14
2019-05-17T01:51:56.666Z,99371.97
2019-05-17T01:52:32.237Z,99370.14
2019-05-17T01:53:08.350Z,99368.70
2019-05-17T01:53:46.838Z,99373.50
2019-05-17T01:54:22.870Z,99368.08
2019-05-17T01:54:59.095Z,99375.17
2019-05-17T01:55:37.195Z,99371.22
2019-05-17T01:56:12.341Z,99369.64
2019-05-17T01:56:48.410Z,99363.98
2019-05-17T01:57:24.618Z,99368.48
2019-05-17T01:58:00.660Z,99366.14
2019-05-17T01:58:36.872Z,99363.23
2019-05-17T01:59:12.715Z,99344.81
2019-05-17T01:59:48.384Z,99364.20
2019-05-17T02:00:26.544Z,99364.44
2019-05-17T02:01:02.640Z,99361.72
2019-05-17T02:01:38.676Z,99355.05
2019-05-17T02:02:17.465Z,99361.40
2019-05-17T02:02:54.346Z,99362.91
2019-05-17T02:03:30.008Z,99362.23
2019-05-17T02:04:06.581Z,99360.77
2019-05-17T02:04:42.574Z,99361.22
2019-05-17T02:05:18.716Z,99359.27
2019-05-17T02:05:56.615Z,99361.95
2019-05-17T02:06:33.062Z,99360.77
2019-05-17T02:07:09.125Z,99361.28
2019-05-17T02:07:46.555Z,99351.92
2019-05-17T02:08:23.023Z,99358.63
2019-05-17T02:08:59.171Z,99361.15
2019-05-17T02:09:41.204Z,99350.81
2019-05-17T02:10:13.750Z,99355.39
2019-05-17T02:10:49.473Z,99355.50
2019-05-17T02:11:26.916Z,99352.46
2019-05-17T02:12:03.183Z,99354.38
2019-05-17T02:12:41.890Z,99356.95
2019-05-17T02:13:18.237Z,99344.80
2019-05-17T02:13:56.172Z,99352.70
2019-05-17T02:14:31.960Z,99353.47
2019-05-17T02:15:08.858Z,99351.92
2019-05-17T02:15:47.017Z,99344.94
2019-05-17T02:16:22.698Z,99353.02
2019-05-17T02:16:59.145Z,99354.88
2019-05-17T02:17:37.182Z,99358.06
2019-05-17T02:18:12.438Z,99351.77
2019-05-17T02:18:48.538Z,99352.91
2019-05-17T02:19:26.563Z,99351.06
2019-05-17T02:20:02.364Z,99351.34
2019-05-17T02:20:38.779Z,99355.28
2019-05-17T02:21:16.779Z,99355.88
2019-05-17T02:21:52.069Z,99353.08
2019-05-17T02:22:28.115Z,99352.70
2019-05-17T02:23:04.064Z,99348.69
2019-05-17T02:23:39.850Z,99344.69
2019-05-17T02:24:16.936Z,99349.66
2019-05-17T02:24:53.456Z,99345.98
2019-05-17T02:25:29.147Z,99347.30
2019-05-17T02:26:06.706Z,99348.13
2019-05-17T02:26:42.641Z,99345.55
2019-05-17T02:27:21.411Z,99345.65
2019-05-17T02:27:56.808Z,99346.45
2019-05-17T02:28:32.746Z,99347.91
2019-05-17T02:29:08.726Z,99346.69
2019-05-17T02:29:44.742Z,99340.02
2019-05-17T02:30:23.345Z,99345.47
2019-05-17T02:30:58.882Z,99345.33
2019-05-17T02:31:35.673Z,99346.09
2019-05-17T02:32:12.851Z,99346.83
2019-05-17T02:32:53.850Z,99344.80
2019-05-17T02:33:28.431Z,99343.77
2019-05-17T02:34:04.760Z,99341.52
2019-05-17T02:34:42.995Z,99341.84
2019-05-17T02:35:18.561Z,99346.45
2019-05-17T02:35:54.765Z,99346.45
2019-05-17T02:36:33.236Z,99346.09
2019-05-17T02:37:08.184Z,99343.19
2019-05-17T02:37:44.238Z,99339.33
2019-05-17T02:38:22.446Z,99348.28
2019-05-17T02:38:58.187Z,99342.36
2019-05-17T02:39:51.857Z,99345.06
2019-05-17T02:40:14.677Z,99341.59
2019-05-17T02:40:53.249Z,99346.54
2019-05-17T02:41:28.178Z,99345.40
2019-05-17T02:42:03.871Z,99340.15
2019-05-17T02:42:42.972Z,99337.41
2019-05-17T02:43:18.092Z,99333.54
2019-05-17T02:43:53.736Z,99336.64
2019-05-17T02:44:33.169Z,99340.45
2019-05-17T02:45:08.070Z,99336.96
2019-05-17T02:45:43.737Z,99335.94
2019-05-17T02:46:23.028Z,99335.48
2019-05-17T02:46:57.772Z,99334.38
2019-05-17T02:47:34.114Z,99338.00
2019-05-17T02:48:13.154Z,99334.74
2019-05-17T02:48:48.091Z,99330.42
2019-05-17T02:49:24.231Z,99332.61
2019-05-17T02:50:00.621Z,99338.02
2019-05-17T02:50:36.447Z,99333.67
2019-05-17T02:51:13.165Z,99334.83
2019-05-17T02:51:52.560Z,99334.19
2019-05-17T02:52:27.667Z,99338.45
2019-05-17T02:53:04.855Z,99329.41
2019-05-17T02:53:42.964Z,99333.61
2019-05-17T02:54:19.346Z,99336.50
2019-05-17T02:54:55.000Z,99333.47
2019-05-17T02:55:32.387Z,99326.84
2019-05-17T02:56:08.466Z,99332.55
2019-05-17T02:56:44.124Z,99331.78
2019-05-17T02:57:23.323Z,99333.99
2019-05-17T02:57:58.131Z,99332.47
2019-05-17T02:58:33.770Z,99332.63
2019-05-17T02:59:13.141Z,99332.63
2019-05-17T02:59:47.296Z,99335.20
2019-05-17T03:00:24.176Z,99326.61
2019-05-17T03:01:03.475Z,99335.48
2019-05-17T03:01:38.504Z,99331.70
2019-05-17T03:02:14.464Z,99326.16
2019-05-17T03:02:53.679Z,99329.27
2019-05-17T03:03:29.115Z,99329.66
2019-05-17T03:04:05.053Z,99329.94
2019-05-17T03:04:43.292Z,99328.20
2019-05-17T03:05:23.259Z,99327.81
2019-05-17T03:05:58.207Z,99327.81
2019-05-17T03:06:34.543Z,99332.36
2019-05-17T03:07:13.567Z,99322.19
2019-05-17T03:07:47.878Z,99323.77
2019-05-17T03:08:24.385Z,99321.58
2019-05-17T03:09:03.235Z,99328.29
2019-05-17T03:09:37.844Z,99327.22
2019-05-17T03:10:23.876Z,99319.15
2019-05-17T03:10:53.660Z,99320.83
2019-05-17T03:11:33.030Z,99325.09
2019-05-17T03:12:08.112Z,99319.60
2019-05-17T03:12:44.885Z,99319.60
2019-05-17T03:13:23.461Z,99327.67
2019-05-17T03:13:58.812Z,99328.83
2019-05-17T03:14:34.631Z,99324.40
2019-05-17T03:15:13.029Z,99325.79
2019-05-17T03:15:48.434Z,99322.44
2019-05-17T03:16:24.318Z,99322.57
2019-05-17T03:17:02.911Z,99324.25
2019-05-17T03:17:37.775Z,99317.73
2019-05-17T03:18:13.696Z,99321.21
2019-05-17T03:18:49.314Z,99310.43
2019-05-17T03:19:25.397Z,99320.83
2019-05-17T03:20:04.015Z,99316.80
2019-05-17T03:20:38.547Z,99319.15
2019-05-17T03:21:14.564Z,99322.35
2019-05-17T03:21:53.305Z,99315.13
2019-05-17T03:22:28.097Z,99317.77
2019-05-17T03:23:04.442Z,99311.77
2019-05-17T03:23:43.290Z,99313.78
2019-05-17T03:24:17.864Z,99315.67
2019-05-17T03:24:53.864Z,99314.69
2019-05-17T03:25:33.003Z,99311.87
2019-05-17T03:26:07.133Z,99315.67
2019-05-17T03:26:43.356Z,99307.00
2019-05-17T03:27:19.359Z,99316.05
2019-05-17T03:27:55.088Z,99312.70
2019-05-17T03:28:33.721Z,99315.84
2019-05-17T03:29:08.645Z,99312.50
2019-05-17T03:29:44.291Z,99309.98
2019-05-17T03:30:25.326Z,99310.58
2019-05-17T03:30:58.336Z,99314.30
2019-05-17T03:31:41.920Z,99315.83
2019-05-17T03:32:17.397Z,99311.41
2019-05-17T03:32:55.479Z,99307.74
2019-05-17T03:33:28.281Z,99314.30
2019-05-17T03:34:06.310Z,99310.13
2019-05-17T03:34:44.922Z,99314.13
2019-05-17T03:35:25.887Z,99312.59
2019-05-17T03:36:05.419Z,99308.26
2019-05-17T03:36:37.325Z,99307.25
2019-05-17T03:37:15.934Z,99303.47
2019-05-17T03:37:53.187Z,99307.41
2019-05-17T03:38:32.350Z,99312.63
2019-05-17T03:39:07.654Z,99315.92
2019-05-17T03:39:44.040Z,99312.70
2019-05-17T03:40:36.307Z,99318.33
2019-05-17T03:41:09.474Z,99312.32
2019-05-17T03:41:35.097Z,99314.83
2019-05-17T03:42:13.223Z,99315.44
2019-05-17T03:42:48.627Z,99319.38
2019-05-17T03:43:25.768Z,99314.60
2019-05-17T03:44:03.225Z,99316.41
2019-05-17T03:44:39.322Z,99308.45
2019-05-17T03:45:16.025Z,99309.19
2019-05-17T03:45:53.329Z,99308.83
2019-05-17T03:46:29.606Z,99315.64
2019-05-17T03:47:05.987Z,99306.92
2019-05-17T03:47:44.647Z,99309.64
2019-05-17T03:48:22.159Z,99310.41
2019-05-17T03:48:57.695Z,99303.87
2019-05-17T03:49:33.867Z,99304.00
2019-05-17T03:50:13.091Z,99309.09
2019-05-17T03:50:47.745Z,99306.58
2019-05-17T03:51:23.615Z,99307.22
2019-05-17T03:52:02.455Z,99305.77
2019-05-17T03:52:37.516Z,99309.37
2019-05-17T03:53:13.731Z,99311.65
2019-05-17T03:53:49.351Z,99307.53
2019-05-17T03:54:25.818Z,99312.47
2019-05-17T03:55:04.077Z,99308.28
2019-05-17T03:55:39.334Z,99306.42
2019-05-17T03:56:15.645Z,99306.05
2019-05-17T03:56:53.213Z,99298.38
2019-05-17T03:57:29.294Z,99299.20
2019-05-17T03:58:05.337Z,99306.30
2019-05-17T03:58:43.398Z,99298.44
2019-05-17T03:59:18.469Z,99301.47
2019-05-17T03:59:54.489Z,99304.57
2019-05-17T04:00:30.786Z,99296.69
2019-05-17T04:01:06.553Z,99301.45
2019-05-17T04:01:43.662Z,99302.98
2019-05-17T04:02:22.832Z,99299.70
2019-05-17T04:02:57.169Z,99300.33
2019-05-17T04:03:35.498Z,99299.19
2019-05-17T04:04:13.383Z,99298.12
2019-05-17T04:04:47.984Z,99296.00
2019-05-17T04:05:24.090Z,99302.20
2019-05-17T04:05:59.937Z,99297.11
2019-05-17T04:06:36.534Z,99297.44
2019-05-17T04:07:12.954Z,99301.45
2019-05-17T04:07:48.893Z,99289.75
2019-05-17T04:08:24.830Z,99301.77
2019-05-17T04:09:03.701Z,99297.13
2019-05-17T04:09:38.798Z,99298.73
2019-05-17T04:10:15.483Z,99305.78
2019-05-17T04:10:52.971Z,99295.06
2019-05-17T04:11:35.275Z,99296.00
2019-05-17T04:12:06.856Z,99303.46
2019-05-17T04:12:44.407Z,99298.58
2019-05-17T04:13:23.148Z,99301.98
2019-05-17T04:13:58.546Z,99298.73
2019-05-17T04:14:34.545Z,99299.72
2019-05-17T04:15:13.388Z,99303.14
2019-05-17T04:15:48.987Z,99306.70
2019-05-17T04:16:25.041Z,99305.27
2019-05-17T04:17:03.039Z,99306.70
2019-05-17T04:17:38.637Z,99301.84
2019-05-17T04:18:14.762Z,99303.91
2019-05-17T04:18:53.288Z,99306.42
2019-05-17T04:19:28.251Z,99260.20
2019-05-17T04:20:04.296Z,99305.97
2019-05-17T04:20:43.060Z,99297.06
2019-05-17T04:21:17.545Z,99300.33
2019-05-17T04:21:54.001Z,99299.87
2019-05-17T04:22:33.056Z,99304.06
2019-05-17T04:23:08.072Z,99304.06
2019-05-17T04:23:44.372Z,99306.50
2019-05-17T04:24:22.916Z,99305.59
2019-05-17T04:24:57.963Z,99295.54
2019-05-17T04:25:34.376Z,99295.54
2019-05-17T04:26:13.270Z,99307.52
2019-05-17T04:26:47.905Z,99304.03
2019-05-17T04:27:23.954Z,99305.78
2019-05-17T04:28:02.782Z,99302.88
2019-05-17T04:28:37.646Z,99304.31
2019-05-17T04:29:13.920Z,99310.17
2019-05-17T04:29:53.018Z,99314.65
2019-05-17T04:30:27.261Z,99312.45
2019-05-17T04:31:03.525Z,99310.49
2019-05-17T04:31:43.123Z,99313.22
2019-05-17T04:32:17.034Z,99311.78
2019-05-17T04:32:53.402Z,99310.49
2019-05-17T04:33:29.837Z,99308.58
2019-05-17T04:34:05.560Z,99300.89
2019-05-17T04:34:43.738Z,99310.42
2019-05-17T04:35:19.236Z,99307.14
2019-05-17T04:35:55.289Z,99305.95
2019-05-17T04:36:32.328Z,99308.47
2019-05-17T04:37:09.011Z,99306.80
2019-05-17T04:37:45.223Z,99309.76
2019-05-17T04:38:23.599Z,99308.98
2019-05-17T04:39:02.212Z,99306.69
2019-05-17T04:39:37.108Z,99309.41
2019-05-17T04:40:14.541Z,99305.08
2019-05-17T04:40:53.454Z,99307.53
2019-05-17T04:41:44.170Z,99305.68
2019-05-17T04:42:05.881Z,99303.55
2019-05-17T04:42:43.835Z,99296.63
2019-05-17T04:43:19.077Z,99307.91
2019-05-17T04:43:56.155Z,99304.04
2019-05-17T04:44:32.381Z,99297.47
2019-05-17T04:45:08.387Z,99307.59
2019-05-17T04:45:44.395Z,99309.10
2019-05-17T04:46:23.645Z,99299.08
2019-05-17T04:46:58.022Z,99307.28
2019-05-17T04:47:34.433Z,99305.78
2019-05-17T04:48:13.218Z,99305.78
2019-05-17T04:48:48.429Z,99309.80
2019-05-17T04:49:24.540Z,99306.38
2019-05-17T04:50:03.994Z,99309.20
2019-05-17T04:50:38.561Z,99314.80
2019-05-17T04:51:14.984Z,99304.00
2019-05-17T04:51:52.602Z,99312.45
2019-05-17T04:52:28.761Z,99311.75
2019-05-17T04:53:04.882Z,99310.58
2019-05-17T04:53:43.019Z,99310.52
2019-05-17T04:54:18.934Z,99313.17
2019-05-17T04:54:55.324Z,99312.89
2019-05-17T04:55:34.341Z,99311.83
2019-05-17T04:56:09.058Z,99313.22
2019-05-17T04:56:45.066Z,99309.94
2019-05-17T04:57:23.189Z,99313.75
2019-05-17T04:57:59.439Z,99310.53
2019-05-17T04:58:35.434Z,99310.33
2019-05-17T04:59:13.830Z,99309.20
2019-05-17T04:59:48.906Z,99305.54
2019-05-17T05:00:25.057Z,99310.19
2019-05-17T05:01:03.961Z,99318.98
2019-05-17T05:01:38.638Z,99315.87
2019-05-17T05:02:14.671Z,99315.63
2019-05-17T05:02:52.703Z,99308.64
2019-05-17T05:03:28.444Z,99311.16
2019-05-17T05:04:04.500Z,99310.52
2019-05-17T05:04:43.499Z,99306.06
2019-05-17T05:05:18.158Z,99312.89
2019-05-17T05:05:54.754Z,99313.87
2019-05-17T05:06:32.948Z,99314.70
2019-05-17T05:07:08.429Z,99317.30
2019-05-17T05:07:44.435Z,99315.25
2019-05-17T05:08:22.468Z,99316.27
2019-05-17T05:08:57.687Z,99313.67
2019-05-17T05:09:34.105Z,99314.06
2019-05-17T05:10:13.448Z,99315.17
2019-05-17T05:10:48.318Z,99315.17
2019-05-17T05:11:24.818Z,99317.44
2019-05-17T05:12:05.835Z,99312.83
2019-05-17T05:12:39.333Z,99306.37
2019-05-17T05:13:15.487Z,99310.39
2019-05-17T05:13:53.102Z,99315.03
2019-05-17T05:14:28.832Z,99310.90
2019-05-17T05:15:05.080Z,99313.73
2019-05-17T05:15:44.028Z,99312.59
2019-05-17T05:16:22.445Z,99315.55
2019-05-17T05:16:57.723Z,99314.13
2019-05-17T05:17:33.664Z,99310.25
2019-05-17T05:18:12.902Z,99309.86
2019-05-17T05:18:47.386Z,99316.02
2019-05-17T05:19:23.208Z,99307.33
2019-05-17T05:19:58.915Z,99310.34
2019-05-17T05:20:34.949Z,99315.19
2019-05-17T05:21:12.241Z,99312.73
2019-05-17T05:21:48.772Z,99308.27
2019-05-17T05:22:24.842Z,99307.05
2019-05-17T05:23:02.647Z,99311.23
2019-05-17T05:23:38.595Z,99311.69
2019-05-17T05:24:14.692Z,99314.83
2019-05-17T05:24:52.503Z,99314.45
2019-05-17T05:25:28.750Z,99312.16
2019-05-17T05:26:05.490Z,99305.19
2019-05-17T05:26:42.511Z,99308.94
2019-05-17T05:27:18.934Z,99310.92
2019-05-17T05:27:55.009Z,99311.33
2019-05-17T05:28:31.790Z,99308.47
2019-05-17T05:29:07.832Z,99309.66
2019-05-17T05:29:43.821Z,99311.23
2019-05-17T05:30:19.636Z,99306.16
2019-05-17T05:30:55.332Z,99303.05
2019-05-17T05:31:32.254Z,99300.02
2019-05-17T05:32:08.179Z,99285.36
2019-05-17T05:32:44.196Z,99304.04
2019-05-17T05:33:22.172Z,99311.98
2019-05-17T05:33:57.916Z,99299.74
2019-05-17T05:34:33.674Z,99299.74
2019-05-17T05:35:12.415Z,99305.88
2019-05-17T05:35:48.629Z,99305.63
2019-05-17T05:36:24.677Z,99307.63
2019-05-17T05:37:02.179Z,99301.91
2019-05-17T05:37:38.192Z,99306.33
2019-05-17T05:38:14.291Z,99308.80
2019-05-17T05:38:51.567Z,99310.50
2019-05-17T05:39:27.619Z,99312.63
2019-05-17T05:40:03.827Z,99304.97
2019-05-17T05:40:41.406Z,99304.97
2019-05-17T05:41:17.714Z,99308.28
2019-05-17T05:42:06.379Z,99307.90
2019-05-17T05:42:31.535Z,99316.53
2019-05-17T05:43:07.652Z,99318.77
2019-05-17T05:43:43.369Z,99316.73
2019-05-17T05:44:21.502Z,99314.41
2019-05-17T05:44:57.523Z,99315.05
2019-05-17T05:45:33.581Z,99314.91
2019-05-17T05:46:11.676Z,99318.25
2019-05-17T05:46:47.957Z,99314.37
2019-05-17T05:47:23.649Z,99307.55
2019-05-17T05:48:01.791Z,99313.19
2019-05-17T05:48:38.281Z,99317.75
2019-05-17T05:49:13.926Z,99312.34
2019-05-17T05:49:51.920Z,99318.31
2019-05-17T05:50:27.561Z,99316.00
2019-05-17T05:51:04.918Z,99319.95
2019-05-17T05:51:42.436Z,99316.95
2019-05-17T05:52:18.495Z,99311.44
2019-05-17T05:52:55.617Z,99309.34
2019-05-17T05:53:32.569Z,99309.34
2019-05-17T05:54:08.539Z,99314.91
2019-05-17T05:54:44.563Z,99310.44
2019-05-17T05:55:23.422Z,99315.52
2019-05-17T05:55:58.916Z,99315.28
2019-05-17T05:56:34.696Z,99313.87
2019-05-17T05:57:12.594Z,99317.30
2019-05-17T05:57:48.700Z,99317.30
2019-05-17T05:58:24.826Z,99314.02
2019-05-17T05:59:02.965Z,99305.42
2019-05-17T05:59:38.497Z,99308.81
2019-05-17T06:00:16.453Z,99301.45
2019-05-17T06:00:53.289Z,99301.45
2019-05-17T06:01:29.652Z,99312.84
2019-05-17T06:02:05.778Z,99304.70
2019-05-17T06:02:42.120Z,99307.13
2019-05-17T06:03:18.083Z,99309.80
2019-05-17T06:03:54.217Z,99309.80
2019-05-17T06:04:31.879Z,99300.63
2019-05-17T06:05:08.061Z,99301.53
2019-05-17T06:05:43.817Z,99308.43
2019-05-17T06:06:21.557Z,99302.64
2019-05-17T06:06:57.926Z,99300.33
2019-05-17T06:07:33.620Z,99306.72
2019-05-17T06:08:11.949Z,99301.24
2019-05-17T06:08:47.732Z,99298.38
2019-05-17T06:09:23.482Z,99308.89
2019-05-17T06:10:02.037Z,99307.02
2019-05-17T06:10:39.455Z,99309.23
2019-05-17T06:11:14.779Z,99307.02
2019-05-17T06:11:51.930Z,99306.38
2019-05-17T06:12:28.273Z,99299.67
2019-05-17T06:13:04.470Z,99308.85
2019-05-17T06:13:41.861Z,99308.55
2019-05-17T06:14:17.782Z,99311.06
2019-05-17T06:14:53.467Z,99306.19
2019-05-17T06:15:31.937Z,99305.88
2019-05-17T06:16:07.477Z,99309.31
2019-05-17T06:16:43.102Z,99305.13
2019-05-17T06:17:21.478Z,99305.13
2019-05-17T06:17:57.220Z,99311.70
2019-05-17T06:18:33.688Z,99306.34
2019-05-17T06:19:11.615Z,99314.19
2019-05-17T06:19:47.691Z,99310.22
2019-05-17T06:20:24.367Z,99306.15
2019-05-17T06:21:02.725Z,99306.38
2019-05-17T06:21:38.717Z,99306.38
2019-05-17T06:22:14.363Z,99305.88
2019-05-17T06:22:51.833Z,99310.76
2019-05-17T06:23:28.103Z,99306.45
2019-05-17T06:24:03.855Z,99302.53
2019-05-17T06:24:42.345Z,99306.66
2019-05-17T06:25:18.122Z,99305.86
2019-05-17T06:25:53.929Z,99311.45
2019-05-17T06:26:31.518Z,99306.23
2019-05-17T06:27:07.523Z,99309.58
2019-05-17T06:27:43.257Z,99309.58
2019-05-17T06:28:19.268Z,99306.94
2019-05-17T06:28:55.309Z,99308.96
2019-05-17T06:29:32.772Z,99306.80
2019-05-17T06:30:09.385Z,99302.91
2019-05-17T06:30:45.583Z,99309.26
2019-05-17T06:31:21.223Z,99308.06
2019-05-17T06:31:57.764Z,99301.45
2019-05-17T06:32:33.953Z,99305.13
2019-05-17T06:33:12.075Z,99300.41
2019-05-17T06:33:48.198Z,99301.67
2019-05-17T06:34:24.085Z,99305.97
2019-05-17T06:35:01.890Z,99300.37
2019-05-17T06:35:37.561Z,99307.55
2019-05-17T06:36:13.794Z,99301.66
2019-05-17T06:36:49.878Z,99305.84
2019-05-17T06:37:26.542Z,99303.53
2019-05-17T06:38:03.051Z,99305.37
2019-05-17T06:38:38.688Z,99293.84
2019-05-17T06:39:15.079Z,99303.91
2019-05-17T06:39:52.665Z,99303.91
2019-05-17T06:40:29.074Z,99305.72
2019-05-17T06:41:05.267Z,99304.05
2019-05-17T06:41:41.985Z,99304.05
2019-05-17T06:42:18.191Z,99302.70
2019-05-17T06:42:54.576Z,99295.41
2019-05-17T06:43:32.303Z,99295.41
2019-05-17T06:44:08.113Z,99304.21
2019-05-17T06:44:44.126Z,99306.05
2019-05-17T06:45:22.101Z,99306.05
2019-05-17T06:45:58.066Z,99301.92
2019-05-17T06:46:34.847Z,99302.70
2019-05-17T06:47:11.939Z,99297.48
2019-05-17T06:47:48.378Z,99306.23
2019-05-17T06:48:24.853Z,99305.30
2019-05-17T06:49:02.944Z,99301.03
2019-05-17T06:49:38.165Z,99302.48
2019-05-17T06:50:15.214Z,99305.91
2019-05-17T06:50:51.955Z,99309.66
2019-05-17T06:51:27.882Z,99305.58
2019-05-17T06:52:03.949Z,99305.58
2019-05-17T06:52:39.769Z,99304.91
2019-05-17T06:53:15.794Z,99304.91
2019-05-17T06:53:52.396Z,99297.06
2019-05-17T06:54:29.138Z,99307.53
2019-05-17T06:55:06.067Z,99307.69
2019-05-17T06:55:42.861Z,99301.75
2019-05-17T06:56:19.184Z,99301.94
2019-05-17T06:56:54.906Z,99306.39
2019-05-17T06:57:32.489Z,99303.36
2019-05-17T06:58:08.531Z,99297.23
2019-05-17T06:58:44.164Z,99293.31
2019-05-17T06:59:20.647Z,99298.58
2019-05-17T06:59:56.498Z,99294.89
2019-05-17T07:00:32.841Z,99294.77
2019-05-17T07:01:09.511Z,99295.31
2019-05-17T07:01:45.446Z,99300.95
2019-05-17T07:02:21.699Z,99294.54
2019-05-17T07:03:00.562Z,99296.14
2019-05-17T07:03:35.638Z,99296.99
2019-05-17T07:04:11.309Z,99296.88
2019-05-17T07:04:48.036Z,99291.04
2019-05-17T07:05:29.343Z,99291.04
2019-05-17T07:06:06.507Z,99300.22
2019-05-17T07:06:42.544Z,99293.20
2019-05-17T07:07:30.351Z,99299.97
2019-05-17T07:08:05.356Z,99288.77
2019-05-17T07:08:41.637Z,99300.07
2019-05-17T07:09:19.519Z,99300.45
2019-05-17T07:09:55.965Z,99299.52
2019-05-17T07:10:32.029Z,99294.80